Карточка аэропорта USTR

Внимание!
Информация на этой странице в стадии наполнения.
Если вы не увидели какой-то информации, или заметили неточность - пожалуйста сообщите нам!
Спасибо!
Команда RU-STAFF
Название аэропортаРощино
Название аэропорта (англ.)Roshschino
Превышение378 ft. (115.2 m.)
Координаты57°10.098', 65°19.002'
Высота перехода700m
Эшелон переходаFL040
Коды ответчика5101-5137
Зона ОрВДТюмень РПИ (USTV)
Данные METARUSTR 262100Z 26005MPS 9999 OVC017CB M05/M08 Q1012 R21/090065 R30/090065 TEMPO -FZRA BKN015CB
Проноз погоды (TAF)USTR 261958Z 2621/2721 26006G12MPS 9999 DRSN FEW007 BKN020CB TEMPO 2621/2624 24012MPS 3100 -SHSN -FZRA BLSN SCT005 BKN016CB TEMPO 2704/2721 24014MPS 1000 SHSN FZRA BLSN VV005
NOTAMshow/hide NOTAM
AWOS   TABLE

Информация о ВПП

ВПП Длина ВПП (м.) Покрытие Курс ВПП Частота ILS
122704Асфальтобетон121 
302704Асфальтобетон301 
033003Асфальтобетон34108.3
213003Асфальтобетон214110.7

Диспетчерские позиции

Позывной Наименование органа УВД Частота
USTR_R_APPТюмень-Круг126.100
USTR_GNDТюмень-Руление119.000
USTR_TWRТюмень-Старт118.200



Спутниковое изображение